Time;durP1;ratioP1;P1;durP2;ratioP2;P2;SDS_P1;SDS_P2;PMS_P1;PMS_P2;Temp;Humidity;BMP_temperature;BMP_pressure;BME280_temperature;BME280_humidity;BME280_pressure;Samples;Min_cycle;Max_cycle;Signal;HPM_P1;HPM_P2
2021/06/04 10:19:47;;;;;;;;;4.33;4.33;;;;;19.41;47.74;99226.22;4942911;28;102300;-93
2021/06/04 10:22:16;;;;;;;;;5.00;4.33;;;;;19.41;47.81;99218.84;4963720;28;104597;-93
2021/06/04 10:25:01;;;;;;;;;6.00;5.00;;;;;19.44;47.50;99228.53;4947605;28;102177;-93
2021/06/04 10:27:28;;;;;;;;;3.00;2.00;;;;;19.45;47.39;99216.50;4959445;28;102056;-93
2021/06/04 10:30:08;;;;;;;;;4.00;4.00;;;;;19.45;47.49;99211.81;4961688;28;102107;-91
2021/06/04 10:32:41;;;;;;;;;4.00;4.00;;;;;19.45;47.31;99222.78;4952990;28;104328;-94
2021/06/04 10:35:24;;;;;;;;;6.67;5.00;;;;;19.43;47.39;99207.63;4924538;28;104556;-93
2021/06/04 10:38:03;;;;;;;;;4.67;4.67;;;;;19.47;47.45;99215.16;4952782;28;102425;-92
2021/06/04 10:40:32;;;;;;;;;6.00;5.00;;;;;19.48;47.52;99205.88;4885220;28;102815;-93
2021/06/04 10:43:17;;;;;;;;;6.00;5.00;;;;;19.48;47.24;99205.88;4938162;28;105062;-93
2021/06/04 10:45:54;;;;;;;;;4.67;4.33;;;;;19.49;47.18;99217.69;4920014;28;102274;-93
2021/06/04 10:48:21;;;;;;;;;5.00;5.00;;;;;19.50;47.56;99214.66;4953660;28;104526;-93
2021/06/04 10:51:01;;;;;;;;;6.33;5.00;;;;;19.48;47.60;99210.53;4937519;28;102520;-93
2021/06/04 10:53:56;;;;;;;;;4.00;4.00;;;;;19.50;47.63;99209.19;4941386;28;109151;-94
2021/06/04 10:56:40;;;;;;;;;5.00;5.00;;;;;19.50;47.58;99209.19;4955602;28;102299;-93
2021/06/04 10:59:32;;;;;;;;;7.67;6.00;;;;;19.52;47.38;99206.22;4871204;28;102642;-92
2021/06/04 11:02:37;;;;;;;;;5.00;5.00;;;;;19.53;47.34;99197.75;4952590;28;102498;-92
2021/06/04 11:05:20;;;;;;;;;3.00;3.00;;;;;19.54;47.39;99193.91;4890250;28;108795;-93
2021/06/04 11:07:55;;;;;;;;;4.00;4.00;;;;;19.55;47.42;99195.56;4957045;28;102779;-93
2021/06/04 11:10:27;;;;;;;;;4.00;4.00;;;;;19.56;47.46;99200.00;4928489;28;102709;-93
2021/06/04 11:13:14;;;;;;;;;5.00;5.00;;;;;19.57;47.29;99198.09;4928147;28;102324;-92
2021/06/04 11:15:57;;;;;;;;;5.00;4.00;;;;;19.58;47.39;99200.59;4913124;28;104034;-93
2021/06/04 11:18:56;;;;;;;;;4.00;4.00;;;;;19.57;47.54;99187.94;4897310;28;102031;-92
2021/06/04 11:21:49;;;;;;;;;4.67;4.67;;;;;19.57;47.66;99190.69;4834231;28;104309;-92
2021/06/04 11:24:39;;;;;;;;;3.67;3.67;;;;;19.62;47.31;99197.34;4823635;28;102457;-93
2021/06/04 11:27:08;;;;;;;;;4.00;3.67;;;;;19.62;47.28;99189.13;4856432;28;107653;-93
2021/06/04 11:29:37;;;;;;;;;3.00;3.00;;;;;19.64;47.34;99189.69;4883439;28;102390;-92
2021/06/04 11:32:22;;;;;;;;;5.00;4.00;;;;;19.64;47.31;99192.44;4886179;28;102423;-92
2021/06/04 11:34:56;;;;;;;;;5.00;4.33;;;;;19.64;47.42;99186.94;4892963;28;102831;-93
2021/06/04 11:37:46;;;;;;;;;4.33;4.00;;;;;19.65;47.35;99181.22;4903173;28;107585;-92
2021/06/04 11:40:20;;;;;;;;;5.67;5.33;;;;;19.65;47.49;99173.00;4840175;28;102309;-94
2021/06/04 11:43:06;;;;;;;;;4.00;3.33;;;;;19.67;47.40;99181.81;4888933;28;102059;-94
2021/06/04 11:45:34;;;;;;;;;5.33;5.33;;;;;19.67;47.25;99168.09;4844966;28;102458;-94
2021/06/04 11:48:19;;;;;;;;;4.33;4.00;;;;;19.69;47.31;99173.31;4898457;28;104162;-93
2021/06/04 11:50:47;;;;;;;;;4.33;4.33;;;;;19.69;47.52;99168.69;4916669;28;103971;-93
2021/06/04 11:53:35;;;;;;;;;5.00;4.00;;;;;19.71;47.42;99173.94;4922496;28;102575;-93
2021/06/04 11:56:09;;;;;;;;;3.67;3.67;;;;;19.70;47.10;99162.13;4841455;28;102260;-93
2021/06/04 11:58:36;;;;;;;;;3.67;3.67;;;;;19.72;47.13;99156.41;4878961;28;106243;-94
2021/06/04 12:01:21;;;;;;;;;5.00;5.00;;;;;19.74;47.35;99154.22;4916558;28;102117;-94
2021/06/04 12:03:58;;;;;;;;;3.67;3.67;;;;;19.75;47.20;99156.72;4917453;28;104494;-93
2021/06/04 12:06:27;;;;;;;;;4.00;3.33;;;;;19.76;47.11;99152.91;4899160;28;102437;-93
2021/06/04 12:08:58;;;;;;;;;4.33;4.33;;;;;19.77;47.15;99148.25;4916970;28;108827;-93
2021/06/04 12:11:32;;;;;;;;;5.00;5.00;;;;;19.78;47.09;99150.72;4902410;28;102471;-93
2021/06/04 12:14:00;;;;;;;;;3.00;3.00;;;;;19.80;47.09;99147.75;4907848;28;104798;-92
2021/06/04 12:16:29;;;;;;;;;3.67;3.67;;;;;19.62;46.97;99112.31;4920991;28;102431;-93
2021/06/04 12:19:06;;;;;;;;;3.33;3.33;;;;;19.83;46.97;99145.34;4913111;28;109173;-93
2021/06/04 12:21:39;;;;;;;;;4.00;3.00;;;;;19.85;46.95;99137.69;4865047;28;102267;-93
2021/06/04 12:24:10;;;;;;;;;4.33;3.00;;;;;19.86;47.24;99138.50;4911325;28;103052;-92
2021/06/04 12:26:54;;;;;;;;;3.00;3.00;;;;;19.88;46.95;99139.09;4922634;28;102210;-93
2021/06/04 12:29:21;;;;;;;;;4.33;4.00;;;;;19.89;47.12;99136.13;4921281;28;103501;-93
2021/06/04 12:31:59;;;;;;;;;4.00;4.00;;;;;19.92;47.06;99134.78;4902033;28;102735;-93
2021/06/04 12:34:39;;;;;;;;;4.67;4.00;;;;;19.92;47.20;99141.09;4917940;28;102206;-93
2021/06/04 12:37:19;;;;;;;;;3.67;3.67;;;;;19.94;47.14;99138.13;4862586;28;102197;-94
2021/06/04 12:39:50;;;;;;;;;4.00;3.67;;;;;19.96;46.99;99130.44;4919311;28;104365;-92
2021/06/04 12:42:29;;;;;;;;;4.00;3.00;;;;;19.97;46.90;99123.88;4911353;28;105822;-92
2021/06/04 12:45:28;;;;;;;;;3.00;3.00;;;;;20.00;46.78;99126.97;4910680;28;102422;-94
2021/06/04 12:48:16;;;;;;;;;4.00;3.00;;;;;20.02;46.63;99121.22;4850539;28;102283;-93
2021/06/04 12:50:47;;;;;;;;;3.33;3.33;;;;;20.05;46.78;99128.97;4850480;28;107679;-93
2021/06/04 12:53:22;;;;;;;;;2.00;2.00;;;;;20.08;46.76;99125.75;4882876;28;102568;-93
2021/06/04 12:56:00;;;;;;;;;3.00;3.00;;;;;20.07;46.82;99115.84;4920794;28;102450;-93
2021/06/04 12:58:36;;;;;;;;;3.00;3.00;;;;;20.10;46.74;99120.81;4918064;28;102208;-93
2021/06/04 13:01:16;;;;;;;;;4.00;4.00;;;;;20.09;46.80;99118.31;4836150;28;107826;-93
2021/06/04 13:03:49;;;;;;;;;3.00;3.00;;;;;20.12;46.84;99123.31;4889591;28;103612;-93
2021/06/04 13:06:37;;;;;;;;;3.00;3.00;;;;;20.13;46.94;99128.53;4905093;28;102187;-94
2021/06/04 13:09:05;;;;;;;;;2.33;2.00;;;;;20.14;46.74;99121.97;4824168;28;102290;-92
2021/06/04 13:11:45;;;;;;;;;4.00;4.00;;;;;20.18;46.64;99125.03;4872526;28;104123;-94
2021/06/04 13:14:34;;;;;;;;;3.00;3.00;;;;;20.19;46.71;99113.81;4883989;28;102291;-93
2021/06/04 13:17:28;;;;;;;;;4.00;3.67;;;;;20.19;46.67;99110.25;4896560;28;102251;-92
2021/06/04 13:20:14;;;;;;;;;3.00;3.00;;;;;20.23;46.57;99112.22;4913156;28;102538;-93
2021/06/04 13:22:47;;;;;;;;;2.00;2.00;;;;;20.25;46.63;99112.00;4853451;28;107599;-92
2021/06/04 13:25:19;;;;;;;;;4.00;4.00;;;;;20.26;46.84;99114.47;4892490;28;102422;-92
2021/06/04 13:27:46;;;;;;;;;2.33;2.33;;;;;20.28;46.63;99117.81;4901744;28;102811;-93
2021/06/04 13:30:25;;;;;;;;;5.00;4.00;;;;;20.30;46.80;99112.94;4897221;28;102514;-93
2021/06/04 13:32:55;;;;;;;;;3.00;3.00;;;;;20.32;46.76;99099.78;4914012;28;104094;-93
2021/06/04 13:35:26;;;;;;;;;3.00;3.00;;;;;20.33;46.76;99104.19;4882473;28;102415;-93
2021/06/04 13:37:58;;;;;;;;;3.00;3.00;;;;;20.36;46.61;99103.69;4897884;28;105636;-94
2021/06/04 13:40:27;;;;;;;;;4.00;4.00;;;;;20.40;46.60;99106.75;4897196;28;103216;-93
2021/06/04 13:42:59;;;;;;;;;5.00;5.00;;;;;20.42;46.74;99108.16;4903055;28;108964;-93
2021/06/04 13:45:27;;;;;;;;;3.00;3.00;;;;;20.44;46.61;99099.69;4890343;28;102224;-93
2021/06/04 13:48:26;;;;;;;;;3.00;3.00;;;;;20.48;46.22;99098.09;4879058;28;102257;-93
2021/06/04 13:51:04;;;;;;;;;3.00;3.00;;;;;20.51;46.37;99091.25;4826226;28;102268;-94
2021/06/04 13:53:40;;;;;;;;;4.00;4.00;;;;;20.51;46.61;99100.31;4917175;28;109205;-92
2021/06/04 13:56:30;;;;;;;;;4.67;3.33;;;;;20.54;46.35;99088.81;4912017;28;102045;-92
2021/06/04 13:59:26;;;;;;;;;3.33;3.00;;;;;20.57;46.70;99096.56;4915316;28;103015;-92
2021/06/04 14:01:57;;;;;;;;;4.00;3.00;;;;;20.58;46.81;99094.66;4837716;28;102685;-92
2021/06/04 14:04:38;;;;;;;;;3.00;3.00;;;;;20.59;46.66;99091.66;4912308;28;108783;-92
2021/06/04 14:07:25;;;;;;;;;4.00;4.00;;;;;20.61;46.53;99094.16;4838509;28;102557;-95
2021/06/04 14:09:54;;;;;;;;;5.00;4.00;;;;;20.64;46.67;99096.38;4912201;28;102613;-93
2021/06/04 14:12:21;;;;;;;;;3.00;3.00;;;;;20.65;46.42;99100.78;4898902;28;103887;-92
2021/06/04 14:14:51;;;;;;;;;3.67;3.67;;;;;20.67;46.50;99087.66;4913204;28;104173;-93
2021/06/04 14:17:33;;;;;;;;;4.67;4.67;;;;;20.70;46.56;99098.97;4902111;28;107024;-93
2021/06/04 14:20:08;;;;;;;;;4.00;4.00;;;;;20.73;46.55;99092.09;4909166;28;104608;-92
2021/06/04 14:22:43;;;;;;;;;2.33;2.33;;;;;20.78;46.58;99086.69;4888678;28;102130;-92
2021/06/04 14:25:13;;;;;;;;;3.00;3.00;;;;;20.79;46.45;99091.09;4903622;28;103112;-92
2021/06/04 14:27:57;;;;;;;;;3.00;2.67;;;;;20.80;46.07;99092.75;4913620;28;101433;-91
2021/06/04 14:30:37;;;;;;;;;3.33;3.33;;;;;20.80;46.10;99087.28;4895378;28;102543;-92
2021/06/04 14:33:08;;;;;;;;;3.00;3.00;;;;;20.84;46.20;99089.25;4866019;28;102268;-92
2021/06/04 14:35:55;;;;;;;;;3.67;3.67;;;;;20.86;46.56;99080.72;4920501;28;104902;-92
2021/06/04 14:38:38;;;;;;;;;5.33;5.00;;;;;20.89;46.25;99077.50;4894008;28;102642;-93
2021/06/04 14:41:11;;;;;;;;;3.00;3.00;;;;;20.93;46.10;99075.88;4848434;28;103375;-92
2021/06/04 14:43:40;;;;;;;;;4.67;4.00;;;;;20.96;46.02;99074.53;4919778;28;102043;-93
2021/06/04 14:46:16;;;;;;;;;4.00;3.00;;;;;21.00;46.49;99073.75;4898459;28;104224;-93
2021/06/04 14:48:44;;;;;;;;;2.00;2.00;;;;;21.04;46.44;99066.66;4881663;28;102275;-93
2021/06/04 14:51:11;;;;;;;;;4.00;4.00;;;;;21.10;45.99;99067.56;4914328;28;102317;-92
2021/06/04 14:53:38;;;;;;;;;3.00;3.00;;;;;21.11;46.07;99066.47;4897446;28;102183;-93
2021/06/04 14:56:07;;;;;;;;;4.67;4.67;;;;;21.17;45.81;99060.78;4918748;28;104280;-92
2021/06/04 14:58:35;;;;;;;;;4.67;3.00;;;;;21.24;45.86;99066.09;4901462;28;104582;-92
2021/06/04 15:01:03;;;;;;;;;3.00;3.00;;;;;21.27;45.74;99052.66;4918194;28;102284;-92
2021/06/04 15:03:33;;;;;;;;;4.00;4.00;;;;;21.35;45.75;99063.19;4883402;28;103352;-92
2021/06/04 15:06:02;;;;;;;;;4.33;4.00;;;;;21.38;45.05;99055.50;4910069;28;104266;-92
2021/06/04 15:08:29;;;;;;;;;4.00;3.00;;;;;21.46;45.10;99058.63;4919198;28;111428;-92
2021/06/04 15:10:58;;;;;;;;;2.00;2.00;;;;;21.49;45.57;99057.25;4916584;28;102230;-92
2021/06/04 15:13:27;;;;;;;;;2.67;2.67;;;;;21.54;44.77;99060.06;4890374;28;102449;-91
2021/06/04 15:15:54;;;;;;;;;3.67;3.67;;;;;21.56;45.12;99050.47;4888125;28;111949;-92
2021/06/04 15:18:22;;;;;;;;;2.67;2.67;;;;;21.60;45.22;99048.00;4878699;28;102089;-92
2021/06/04 15:20:49;;;;;;;;;2.00;2.00;;;;;21.62;44.99;99034.81;4903852;28;103086;-92
2021/06/04 15:23:17;;;;;;;;;2.33;2.33;;;;;21.66;45.28;99046.94;4888258;28;102398;-92
2021/06/04 15:25:44;;;;;;;;;2.67;2.33;;;;;21.68;44.69;99048.38;4899189;28;104359;-93
2021/06/04 15:28:12;;;;;;;;;1.33;1.33;;;;;21.72;44.99;99046.75;4883625;28;102356;-92
2021/06/04 15:30:40;;;;;;;;;3.00;2.67;;;;;21.75;44.58;99057.22;4894008;28;102680;-92
2021/06/04 15:33:10;;;;;;;;;3.33;2.67;;;;;21.78;44.70;99042.13;4901182;28;102621;-92
2021/06/04 15:35:38;;;;;;;;;2.67;2.00;;;;;21.77;44.95;99040.44;4889235;28;105546;-91
2021/06/04 15:38:06;;;;;;;;;2.67;2.67;;;;;21.54;45.06;99007.78;4899433;28;102128;-92
2021/06/04 15:40:33;;;;;;;;;2.00;2.00;;;;;21.75;44.92;99051.72;4895079;28;104091;-91
2021/06/04 15:43:01;;;;;;;;;2.67;2.00;;;;;21.73;44.72;99047.56;4900133;28;103606;-91
2021/06/04 15:45:29;;;;;;;;;2.00;2.00;;;;;21.70;45.18;99045.34;4892923;28;104051;-92
2021/06/04 15:47:59;;;;;;;;;3.00;3.00;;;;;21.61;45.33;99038.69;4887006;28;101874;-92
2021/06/04 15:50:28;;;;;;;;;4.00;3.67;;;;;21.57;45.34;99038.34;4883300;28;102659;-93
2021/06/04 15:52:55;;;;;;;;;3.00;3.00;;;;;21.52;44.96;99032.00;4902297;28;103822;-92
2021/06/04 15:55:22;;;;;;;;;3.33;3.33;;;;;21.51;45.38;99038.56;4896092;28;104067;-92
2021/06/04 15:57:49;;;;;;;;;4.00;3.00;;;;;21.48;44.98;99033.59;4898046;28;105761;-93
2021/06/04 16:00:22;;;;;;;;;3.00;3.00;;;;;21.44;45.50;99032.44;4891727;28;103208;-92
2021/06/04 16:02:50;;;;;;;;;3.00;3.00;;;;;21.41;45.52;99021.97;4898020;28;105839;-92
2021/06/04 16:05:20;;;;;;;;;3.00;3.00;;;;;21.40;45.60;99026.63;4886166;28;104058;-92
2021/06/04 16:07:48;;;;;;;;;3.67;3.67;;;;;21.39;45.46;99024.16;4900690;28;104518;-92
2021/06/04 16:10:19;;;;;;;;;4.00;4.00;;;;;21.36;45.78;99026.34;4899544;28;102211;-92
2021/06/04 16:12:46;;;;;;;;;2.00;2.00;;;;;21.32;45.97;99024.34;4892405;28;102344;-91
2021/06/04 16:15:14;;;;;;;;;3.00;3.00;;;;;21.35;45.67;99026.59;4889671;28;104696;-91
2021/06/04 16:17:41;;;;;;;;;2.00;2.00;;;;;21.34;45.55;99023.00;4919573;28;103859;-93
2021/06/04 16:20:10;;;;;;;;;3.00;3.00;;;;;21.34;45.46;99022.19;4915796;28;102311;-93
2021/06/04 16:22:37;;;;;;;;;3.00;3.00;;;;;21.24;45.54;99014.66;4921617;28;102799;-93
2021/06/04 16:25:07;;;;;;;;;2.67;2.67;;;;;21.32;46.05;99011.44;4886010;28;106280;-94
2021/06/04 16:27:35;;;;;;;;;2.00;2.00;;;;;21.34;45.43;99019.44;4911441;28;101920;-92
2021/06/04 16:30:05;;;;;;;;;2.00;2.00;;;;;21.31;45.48;99017.19;4911831;28;102550;-93
2021/06/04 16:32:32;;;;;;;;;2.00;2.00;;;;;21.27;46.02;99022.38;4918975;28;102228;-92
2021/06/04 16:35:00;;;;;;;;;3.00;3.00;;;;;21.27;46.21;99016.88;4911107;28;104137;-87
2021/06/04 16:37:27;;;;;;;;;3.00;3.00;;;;;21.24;45.35;99017.41;4917566;28;102705;-92
2021/06/04 16:39:54;;;;;;;;;3.67;3.00;;;;;21.25;46.02;99021.81;4923388;28;102680;-93
2021/06/04 16:42:23;;;;;;;;;4.67;4.00;;;;;21.25;45.93;99024.56;4918488;28;102804;-92
2021/06/04 16:44:51;;;;;;;;;3.00;2.00;;;;;21.22;45.79;99025.09;4920335;28;103263;-92
2021/06/04 16:47:18;;;;;;;;;3.00;3.00;;;;;21.21;45.96;99028.09;4887889;28;102566;-93
2021/06/04 16:49:45;;;;;;;;;2.00;2.00;;;;;21.19;45.81;99025.63;4920732;28;102166;-92
2021/06/04 16:52:13;;;;;;;;;3.33;3.33;;;;;21.18;46.32;99023.94;4912957;28;105230;-92
2021/06/04 16:54:41;;;;;;;;;3.00;3.00;;;;;21.18;46.17;99029.44;4916122;28;104082;-92
2021/06/04 16:57:09;;;;;;;;;3.00;2.67;;;;;21.13;45.98;99018.38;4919546;28;102638;-93
2021/06/04 16:59:38;;;;;;;;;2.33;2.33;;;;;21.16;45.92;99026.13;4901153;28;102271;-92
2021/06/04 17:02:05;;;;;;;;;2.00;2.00;;;;;21.15;46.06;99021.72;4918190;28;102639;-92
2021/06/04 17:04:32;;;;;;;;;3.00;3.00;;;;;21.12;46.44;99022.19;4914855;28;104151;-93
2021/06/04 17:07:00;;;;;;;;;3.00;3.00;;;;;21.11;46.19;99017.81;4902377;28;102107;-93
2021/06/04 17:09:27;;;;;;;;;3.00;3.00;;;;;21.10;46.27;99015.31;4901681;28;102627;-93
2021/06/04 17:11:54;;;;;;;;;2.00;2.00;;;;;21.09;46.21;99014.47;4918215;28;102762;-93
2021/06/04 17:14:21;;;;;;;;;2.00;2.00;;;;;21.10;46.43;99015.31;4901033;28;104236;-92
2021/06/04 17:16:48;;;;;;;;;2.33;2.00;;;;;21.08;46.54;99017.47;4919430;28;102892;-92
2021/06/04 17:19:16;;;;;;;;;3.33;3.33;;;;;21.08;46.51;99022.97;4912655;28;102686;-93
2021/06/04 17:21:45;;;;;;;;;3.00;3.00;;;;;21.05;46.19;99024.31;4917699;28;102583;-93
2021/06/04 17:24:12;;;;;;;;;2.00;2.00;;;;;21.04;46.12;99021.81;4917784;28;104133;-93
2021/06/04 17:26:40;;;;;;;;;3.00;3.00;;;;;21.03;46.66;99031.19;4896931;28;102019;-93
2021/06/04 17:29:07;;;;;;;;;2.33;2.00;;;;;21.02;46.66;99024.03;4915266;28;102813;-92
2021/06/04 17:31:34;;;;;;;;;2.00;2.00;;;;;21.01;46.48;99022.34;4920232;28;102656;-93
2021/06/04 17:34:01;;;;;;;;;2.33;2.33;;;;;20.99;46.84;99022.59;4918655;28;104381;-89
2021/06/04 17:36:29;;;;;;;;;2.00;2.00;;;;;20.97;46.48;99022.03;4895509;28;102761;-93
2021/06/04 17:38:56;;;;;;;;;2.67;1.67;;;;;20.96;46.45;99022.28;4921372;28;104697;-93
2021/06/04 17:41:23;;;;;;;;;3.00;3.00;;;;;20.95;46.81;99029.72;4891599;28;104869;-92
2021/06/04 17:43:50;;;;;;;;;2.00;2.00;;;;;20.93;46.77;99026.41;4906873;28;104096;-93
2021/06/04 17:46:17;;;;;;;;;3.33;3.00;;;;;20.93;46.53;99020.91;4900478;28;102473;-92
2021/06/04 17:48:45;;;;;;;;;2.00;2.00;;;;;20.92;46.54;99024.72;4909670;28;103784;-92
2021/06/04 17:51:12;;;;;;;;;2.67;2.67;;;;;20.92;46.71;99020.06;4900449;28;104581;-93
2021/06/04 17:53:39;;;;;;;;;1.33;1.33;;;;;20.89;46.59;99019.75;4900561;28;104077;-92
2021/06/04 17:56:07;;;;;;;;;3.33;3.00;;;;;20.88;46.93;99018.94;4916481;28;102084;-93
2021/06/04 17:58:34;;;;;;;;;3.00;3.00;;;;;20.88;46.72;99013.44;4873480;28;103651;-92
2021/06/04 18:01:01;;;;;;;;;3.00;2.00;;;;;20.86;47.39;99012.00;4898275;28;102276;-92
2021/06/04 18:03:29;;;;;;;;;3.00;3.00;;;;;20.86;46.94;99020.25;4906243;28;108840;-93
2021/06/04 18:05:56;;;;;;;;;2.00;2.00;;;;;20.86;46.62;99020.25;4895473;28;102247;-92
2021/06/04 18:08:29;;;;;;;;;3.00;2.00;;;;;20.84;47.09;99017.78;4905859;28;102272;-93
2021/06/04 18:10:57;;;;;;;;;2.67;2.67;;;;;20.84;46.62;99022.44;4894816;28;102834;-92
2021/06/04 18:13:24;;;;;;;;;2.00;1.67;;;;;20.84;47.20;99022.44;4887104;28;104095;-92
2021/06/04 18:15:52;;;;;;;;;3.00;3.00;;;;;20.82;47.14;99025.44;4905689;28;102660;-93
2021/06/04 18:18:19;;;;;;;;;3.33;3.33;;;;;20.82;47.15;99030.09;4896876;28;102258;-92
2021/06/04 18:20:49;;;;;;;;;1.67;1.67;;;;;20.81;46.86;99036.69;4895112;28;102694;-93
2021/06/04 18:23:23;;;;;;;;;2.00;2.00;;;;;20.80;47.07;99026.81;4903527;28;106019;-92
2021/06/04 18:25:50;;;;;;;;;2.00;2.00;;;;;20.80;46.88;99026.81;4877353;28;102472;-93
2021/06/04 18:28:17;;;;;;;;;3.00;3.00;;;;;20.79;47.17;99030.63;4906783;28;105828;-92
2021/06/04 18:30:44;;;;;;;;;3.00;3.00;;;;;20.79;47.28;99027.88;4892340;28;102220;-92
2021/06/04 18:33:12;;;;;;;;;3.00;3.00;;;;;20.79;47.21;99033.38;4913600;28;104271;-94
2021/06/04 18:35:39;;;;;;;;;2.33;2.00;;;;;20.77;47.19;99027.28;4903309;28;102585;-92
2021/06/04 18:38:07;;;;;;;;;3.00;3.00;;;;;20.77;46.83;99028.13;4910099;28;102150;-93
2021/06/04 18:40:38;;;;;;;;;2.00;2.00;;;;;20.75;47.22;99026.72;4910258;28;102261;-92
2021/06/04 18:43:07;;;;;;;;;2.33;2.00;;;;;20.75;46.94;99034.97;4898720;28;104795;-92
2021/06/04 18:45:34;;;;;;;;;2.67;2.00;;;;;20.74;47.35;99027.81;4906189;28;102603;-92
2021/06/04 18:48:01;;;;;;;;;3.67;2.67;;;;;20.71;47.29;99026.41;4923733;28;102173;-92
2021/06/04 18:50:31;;;;;;;;;2.00;2.00;;;;;20.72;47.23;99033.56;4896610;28;102832;-92
2021/06/04 18:52:59;;;;;;;;;2.67;2.67;;;;;20.71;47.38;99031.09;4903896;28;109247;-92
2021/06/04 18:55:27;;;;;;;;;2.33;2.33;;;;;20.70;47.27;99029.41;4894894;28;102289;-93
2021/06/04 18:57:55;;;;;;;;;2.00;2.00;;;;;20.69;47.00;99030.50;4900718;28;102441;-93
2021/06/04 19:00:26;;;;;;;;;2.00;2.00;;;;;20.67;47.04;99036.25;4893548;28;102159;-93
2021/06/04 19:02:53;;;;;;;;;2.33;2.33;;;;;20.68;47.10;99034.31;4879846;28;104084;-93
2021/06/04 19:05:21;;;;;;;;;2.00;2.00;;;;;20.67;47.20;99035.44;4909198;28;102201;-93
2021/06/04 19:07:52;;;;;;;;;1.67;1.67;;;;;20.66;47.51;99037.34;4903257;28;103267;-93
2021/06/04 19:10:25;;;;;;;;;3.00;2.00;;;;;20.66;47.17;99044.75;4909926;28;102296;-94
2021/06/04 19:12:53;;;;;;;;;1.00;1.00;;;;;20.64;47.47;99038.66;4879418;28;105380;-92
2021/06/04 19:15:21;;;;;;;;;1.67;1.67;;;;;20.65;47.12;99037.59;4892280;28;102352;-92
2021/06/04 19:17:48;;;;;;;;;3.00;3.00;;;;;20.63;47.40;99031.50;4875490;28;104247;-94
2021/06/04 19:20:16;;;;;;;;;2.67;2.67;;;;;20.63;47.22;99031.50;4890883;28;102294;-94
2021/06/04 19:22:47;;;;;;;;;2.67;2.00;;;;;20.63;47.56;99039.75;4911143;28;104100;-93
2021/06/04 19:25:16;;;;;;;;;2.00;2.00;;;;;20.61;47.23;99034.53;4884772;28;103022;-94
2021/06/04 19:27:43;;;;;;;;;2.33;2.33;;;;;20.61;47.37;99028.19;4900333;28;102352;-93
2021/06/04 19:30:11;;;;;;;;;2.00;2.00;;;;;20.59;47.01;99030.34;4921646;28;102478;-93
2021/06/04 19:32:38;;;;;;;;;2.00;2.00;;;;;20.61;47.52;99033.69;4898420;28;104132;-93
2021/06/04 19:35:06;;;;;;;;;2.67;2.00;;;;;20.60;47.16;99032.03;4890530;28;103559;-92
2021/06/04 19:37:34;;;;;;;;;2.00;2.00;;;;;20.59;47.48;99030.34;4902497;28;103492;-89
2021/06/04 19:40:03;;;;;;;;;2.00;2.00;;;;;20.58;47.75;99031.47;4894955;28;102253;-93
2021/06/04 19:42:30;;;;;;;;;3.00;2.00;;;;;20.57;47.79;99033.38;4900046;28;106470;-92
2021/06/04 19:44:57;;;;;;;;;1.67;1.67;;;;;20.57;47.78;99038.88;4914487;28;102331;-92
2021/06/04 19:47:26;;;;;;;;;3.00;3.00;;;;;20.56;47.46;99039.97;4913729;28;104587;-93
2021/06/04 19:49:54;;;;;;;;;2.00;2.00;;;;;20.56;47.83;99045.44;4912591;28;105895;-92
2021/06/04 19:52:21;;;;;;;;;3.00;2.67;;;;;20.55;47.39;99040.19;4887448;28;104150;-93
2021/06/04 19:54:49;;;;;;;;;1.33;1.33;;;;;20.55;47.77;99040.19;4878587;28;102290;-93
2021/06/04 19:57:16;;;;;;;;;2.00;2.00;;;;;20.54;47.31;99049.53;4919294;28;102141;-93
2021/06/04 19:59:43;;;;;;;;;2.33;2.00;;;;;20.53;47.62;99037.72;4903697;28;104174;-92
2021/06/04 20:02:10;;;;;;;;;2.00;1.00;;;;;20.53;47.66;99045.97;4911629;28;104055;-92
2021/06/04 20:04:37;;;;;;;;;1.67;1.67;;;;;20.53;47.36;99037.72;4914743;28;102598;-93
2021/06/04 20:07:04;;;;;;;;;2.00;2.00;;;;;20.53;47.47;99036.91;4922517;28;102184;-90
2021/06/04 20:09:32;;;;;;;;;3.00;3.00;;;;;20.52;47.50;99033.31;4917318;28;103721;-93
2021/06/04 20:11:59;;;;;;;;;2.00;2.00;;;;;20.51;47.50;99039.88;4895457;28;105693;-93
2021/06/04 20:14:26;;;;;;;;;2.67;2.67;;;;;20.51;47.83;99034.38;4919782;28;102436;-93
2021/06/04 20:16:53;;;;;;;;;1.67;1.67;;;;;20.49;47.69;99031.88;4911156;28;103510;-93
2021/06/04 20:19:21;;;;;;;;;4.00;3.00;;;;;20.48;47.41;99013.75;4910611;28;102107;-92
2021/06/04 20:21:48;;;;;;;;;2.00;2.00;;;;;20.48;47.78;99013.75;4911673;28;104082;-92
2021/06/04 20:24:15;;;;;;;;;1.33;1.33;;;;;20.48;47.57;99019.25;4905109;28;104214;-93
2021/06/04 20:26:43;;;;;;;;;2.00;2.00;;;;;20.47;47.95;99025.84;4910465;28;102197;-92
2021/06/04 20:29:10;;;;;;;;;2.00;2.00;;;;;20.47;47.54;99025.84;4901198;28;102560;-93
2021/06/04 20:31:39;;;;;;;;;2.33;2.33;;;;;20.47;47.71;99028.59;4896109;28;103513;-93
2021/06/04 20:34:08;;;;;;;;;2.67;2.00;;;;;20.29;47.88;98998.63;4907663;28;102514;-92
2021/06/04 20:36:35;;;;;;;;;2.00;2.00;;;;;20.46;47.83;99031.56;4906731;28;102054;-92
2021/06/04 20:39:05;;;;;;;;;3.00;3.00;;;;;20.47;48.01;99022.25;4917381;28;102272;-92
2021/06/04 20:41:32;;;;;;;;;1.50;1.50;;;;;20.45;47.60;99021.66;4879589;28;109105;-93
2021/06/04 20:44:01;;;;;;;;;3.00;2.00;;;;;20.44;47.99;99012.59;4921199;28;102149;-93
2021/06/04 20:46:30;;;;;;;;;2.00;2.00;;;;;20.44;47.83;99029.06;4907787;28;102034;-92
2021/06/04 20:48:58;;;;;;;;;2.33;2.00;;;;;20.43;47.73;99024.69;4910693;28;102486;-92
2021/06/04 20:51:27;;;;;;;;;2.00;2.00;;;;;20.43;48.15;99027.44;4912518;28;104368;-93
2021/06/04 20:53:56;;;;;;;;;3.67;2.33;;;;;20.42;47.88;99009.28;4901233;28;102215;-93
2021/06/04 20:56:29;;;;;;;;;3.00;2.33;;;;;20.42;47.98;99006.53;4880073;28;102265;-92
2021/06/04 20:58:56;;;;;;;;;2.33;2.33;;;;;20.42;47.97;99008.44;4901594;28;103079;-93
2021/06/04 21:01:25;;;;;;;;;2.00;2.00;;;;;20.41;47.79;99007.63;4900343;28;104056;-93
2021/06/04 21:03:53;;;;;;;;;2.00;1.67;;;;;20.42;47.92;99022.19;4895353;28;104710;-92
2021/06/04 21:06:20;;;;;;;;;1.33;1.33;;;;;20.40;48.02;99025.16;4906300;28;104241;-91
2021/06/04 21:08:47;;;;;;;;;2.33;2.00;;;;;20.41;48.07;99020.50;4900710;28;102492;-93
2021/06/04 21:11:15;;;;;;;;;2.00;2.00;;;;;20.41;48.11;99017.75;4911782;28;103884;-92
2021/06/04 21:13:42;;;;;;;;;1.00;1.00;;;;;20.39;48.16;99017.22;4916061;28;102124;-93
2021/06/04 21:16:10;;;;;;;;;2.00;2.00;;;;;20.40;48.19;99021.59;4896341;28;102231;-92
2021/06/04 21:18:38;;;;;;;;;2.33;2.33;;;;;20.39;47.98;99026.28;4914676;28;102161;-93
2021/06/04 21:21:05;;;;;;;;;1.00;1.00;;;;;20.39;48.15;99026.28;4888006;28;104080;-91
2021/06/04 21:23:33;;;;;;;;;2.33;2.33;;;;;20.38;47.73;99018.28;4928062;28;102053;-93
2021/06/04 21:26:00;;;;;;;;;1.67;1.67;;;;;20.38;48.22;99012.78;4913845;28;103067;-92
2021/06/04 21:28:28;;;;;;;;;2.00;2.00;;;;;20.37;48.20;99020.19;4898601;28;102654;-93
2021/06/04 21:30:55;;;;;;;;;1.67;1.67;;;;;20.37;48.00;99011.94;4910248;28;104079;-92
2021/06/04 21:33:25;;;;;;;;;1.33;1.00;;;;;20.35;48.22;99007.81;4912263;28;102604;-92
2021/06/04 21:35:52;;;;;;;;;2.00;2.00;;;;;20.35;47.94;99007.81;4892724;28;102944;-92
2021/06/04 21:38:19;;;;;;;;;2.00;2.00;;;;;20.30;48.18;99000.34;4900059;28;102262;-93
2021/06/04 21:40:47;;;;;;;;;2.00;2.00;;;;;20.34;48.20;99006.16;4897136;28;104078;-92
2021/06/04 21:43:20;;;;;;;;;3.00;2.00;;;;;20.34;48.10;99003.41;4894027;28;103826;-93
2021/06/04 21:45:48;;;;;;;;;2.00;2.00;;;;;20.33;48.08;99002.56;4915488;28;101982;-92
2021/06/04 21:48:15;;;;;;;;;2.00;2.00;;;;;20.33;48.20;98994.31;4918104;28;102485;-93
2021/06/04 21:50:42;;;;;;;;;2.00;2.00;;;;;20.33;48.00;98994.31;4909055;28;104734;-91
2021/06/04 21:53:10;;;;;;;;;2.00;2.00;;;;;20.32;48.03;98992.66;4895357;28;102207;-92
2021/06/04 21:55:38;;;;;;;;;2.33;2.00;;;;;20.32;48.26;98989.06;4903120;28;102128;-93
2021/06/04 21:58:05;;;;;;;;;2.00;2.00;;;;;20.31;48.21;98998.41;4915137;28;104138;-88
2021/06/04 22:00:38;;;;;;;;;2.00;2.00;;;;;20.31;48.05;98998.41;4912852;28;104261;-92
2021/06/04 22:03:06;;;;;;;;;2.00;2.00;;;;;20.32;48.03;99002.81;4913340;28;102823;-87